Time;durP1;ratioP1;P1;durP2;ratioP2;P2;SDS_P1;SDS_P2;PMS_P1;PMS_P2;Temp;Humidity;BMP_temperature;BMP_pressure;BME280_temperature;BME280_humidity;BME280_pressure;Samples;Min_cycle;Max_cycle;Signal;HPM_P1;HPM_P2
2022/01/12 00:01:37;;;;;;;71.07;25.90;;;3.40;99.90;;;;;;5050995;28;20092;-65
2022/01/12 00:04:03;;;;;;;82.15;30.67;;;3.40;99.90;;;;;;5050528;28;20126;-65
2022/01/12 00:06:28;;;;;;;88.30;32.83;;;3.50;99.90;;;;;;5051151;28;20049;-66
2022/01/12 00:08:54;;;;;;;76.82;29.98;;;3.50;99.90;;;;;;5033285;28;20092;-65
2022/01/12 00:11:22;;;;;;;92.10;31.55;;;3.50;99.90;;;;;;5049949;28;20037;-65
2022/01/12 00:13:51;;;;;;;88.20;30.92;;;3.50;99.90;;;;;;5051101;28;20137;-66
2022/01/12 00:16:17;;;;;;;84.63;33.67;;;3.50;99.90;;;;;;5031755;28;20499;-65
2022/01/12 00:18:45;;;;;;;86.85;32.97;;;3.50;99.90;;;;;;5033191;28;20059;-65
2022/01/12 00:21:11;;;;;;;85.22;30.65;;;3.60;99.90;;;;;;5050857;28;20088;-66
2022/01/12 00:23:38;;;;;;;78.68;27.73;;;3.60;99.90;;;;;;5050055;28;20398;-65
2022/01/12 00:26:08;;;;;;;84.18;30.23;;;3.60;99.90;;;;;;5065661;28;20047;-66
2022/01/12 00:34:09;;;;;;;103.55;33.22;;;3.60;99.90;;;;;;5051288;28;20052;-65
2022/01/12 00:36:35;;;;;;;110.00;30.65;;;3.60;99.90;;;;;;5070461;28;20040;-65
2022/01/12 00:39:03;;;;;;;131.88;32.47;;;3.60;99.90;;;;;;5052048;28;20139;-66
2022/01/12 00:41:28;;;;;;;111.50;31.08;;;3.50;99.90;;;;;;5070861;28;20052;-65
2022/01/12 00:43:59;;;;;;;118.32;35.92;;;3.60;99.90;;;;;;5052829;28;20091;-65
2022/01/12 00:46:27;;;;;;;117.30;32.83;;;3.60;99.90;;;;;;5069681;28;20497;-65
2022/01/12 00:48:55;;;;;;;120.95;31.05;;;3.60;99.90;;;;;;5052418;28;20070;-65
2022/01/12 00:51:25;;;;;;;112.60;34.15;;;3.60;99.90;;;;;;5050809;28;20403;-66
2022/01/12 00:53:51;;;;;;;157.60;35.83;;;3.60;99.90;;;;;;5070911;28;20062;-65
2022/01/12 00:56:17;;;;;;;126.28;33.58;;;3.60;99.90;;;;;;5052261;28;20048;-65
2022/01/12 00:58:43;;;;;;;157.90;37.83;;;3.60;99.90;;;;;;5051783;28;20148;-66
2022/01/12 01:01:08;;;;;;;143.30;37.75;;;3.60;99.90;;;;;;5070302;28;20055;-65
2022/01/12 01:03:34;;;;;;;118.85;30.92;;;3.70;99.90;;;;;;5070439;28;20044;-65
2022/01/12 01:06:00;;;;;;;103.53;29.30;;;3.60;99.90;;;;;;5069859;28;20047;-66
2022/01/12 01:08:25;;;;;;;99.50;29.08;;;3.60;99.90;;;;;;5051977;28;20052;-65
2022/01/12 01:10:51;;;;;;;131.55;30.52;;;3.60;99.90;;;;;;5052351;28;20414;-65
2022/01/12 01:13:33;;;;;;;106.35;30.33;;;3.60;99.90;;;;;;5069682;28;20044;-65
2022/01/12 01:16:21;;;;;;;125.97;30.08;;;3.60;99.90;;;;;;5052640;28;20053;-66
2022/01/12 01:27:00;;;;;;;136.10;29.52;;;3.70;99.90;;;;;;5069570;28;20056;-65
2022/01/12 01:29:26;;;;;;;110.68;26.30;;;3.70;99.90;;;;;;5070214;28;20041;-65
2022/01/12 01:31:52;;;;;;;144.45;30.92;;;3.70;99.90;;;;;;5070439;28;20097;-65
2022/01/12 01:34:18;;;;;;;117.75;24.13;;;3.70;99.90;;;;;;5057925;28;20123;-66
2022/01/12 01:36:47;;;;;;;113.43;28.35;;;3.70;99.90;;;;;;5061381;28;20076;-65
2022/01/12 01:39:15;;;;;;;128.30;28.08;;;3.70;99.90;;;;;;5041758;28;20120;-65
2022/01/12 01:41:46;;;;;;;121.88;27.23;;;3.80;99.90;;;;;;5036306;28;20056;-65
2022/01/12 01:54:51;;;;;;;95.40;23.40;;;3.80;99.90;;;;;;5035033;28;20052;-65
2022/01/12 01:57:17;;;;;;;77.32;22.98;;;3.70;99.90;;;;;;5053398;28;20040;-65
2022/01/12 01:59:42;;;;;;;80.25;20.92;;;3.80;99.90;;;;;;5035359;28;20132;-65
2022/01/12 02:02:08;;;;;;;89.80;25.08;;;3.80;99.90;;;;;;5052571;28;20124;-65
2022/01/12 02:04:34;;;;;;;99.88;27.13;;;3.80;99.90;;;;;;5035520;28;20393;-66
2022/01/12 02:06:59;;;;;;;87.10;25.98;;;3.80;99.90;;;;;;5053629;28;20095;-65
2022/01/12 02:09:25;;;;;;;122.78;30.98;;;3.80;99.90;;;;;;5034259;28;20723;-65
2022/01/12 02:11:52;;;;;;;95.45;27.73;;;3.80;99.90;;;;;;5053345;28;20057;-65
2022/01/12 02:14:19;;;;;;;71.82;24.95;;;3.80;99.90;;;;;;5053057;28;20124;-65
2022/01/12 02:16:59;;;;;;;72.85;23.02;;;3.80;99.90;;;;;;5052389;28;20057;-65
2022/01/12 02:41:21;;;;;;;91.25;25.58;;;3.80;99.90;;;;;;5034495;28;20053;-64
2022/01/12 02:54:41;;;;;;;64.10;22.65;;;3.80;99.90;;;;;;5060024;28;20052;-64
2022/01/12 02:57:07;;;;;;;90.20;27.02;;;3.80;99.90;;;;;;5060807;28;20045;-64
2022/01/12 02:59:32;;;;;;;77.95;23.98;;;3.80;99.90;;;;;;5051528;28;20541;-64
2022/01/12 03:02:43;;;;;;;96.25;26.33;;;3.70;99.90;;;;;;5052388;28;20075;-64
2022/01/12 03:05:07;;;;;;;113.85;28.23;;;3.70;99.90;;;;;;5043233;28;20085;-64
2022/01/12 03:07:37;;;;;;;57.28;21.75;;;3.60;99.90;;;;;;5034443;28;20048;-64
2022/01/12 03:10:08;;;;;;;80.25;25.17;;;3.50;99.90;;;;;;5034399;28;20049;-64
2022/01/12 03:12:42;;;;;;;71.28;23.05;;;3.50;99.90;;;;;;5033796;28;20080;-65
2022/01/12 03:15:11;;;;;;;52.20;20.77;;;3.40;99.90;;;;;;5051845;28;20072;-64
2022/01/12 03:17:40;;;;;;;51.03;19.85;;;3.40;99.90;;;;;;5051899;28;20090;-65
2022/01/12 03:20:07;;;;;;;60.50;20.33;;;3.30;99.90;;;;;;5033351;28;20068;-64
2022/01/12 03:22:33;;;;;;;44.33;18.50;;;3.20;99.90;;;;;;5033923;28;20049;-65
2022/01/12 03:24:59;;;;;;;82.05;21.15;;;3.20;99.90;;;;;;5034060;28;20060;-65
2022/01/12 03:27:26;;;;;;;52.10;16.20;;;3.20;99.90;;;;;;5050912;28;20357;-65
2022/01/12 03:29:55;;;;;;;83.80;17.85;;;3.00;99.90;;;;;;5051725;28;20052;-65
2022/01/12 03:32:31;;;;;;;52.88;17.77;;;2.90;99.90;;;;;;5033880;28;20053;-65
2022/01/12 03:35:07;;;;;;;42.97;18.33;;;2.90;99.90;;;;;;5032944;28;20132;-65
2022/01/12 03:37:52;;;;;;;46.20;18.27;;;3.00;99.90;;;;;;5051828;28;20494;-64
2022/01/12 03:40:18;;;;;;;45.13;17.88;;;3.00;99.90;;;;;;5032654;28;20064;-65
2022/01/12 03:42:44;;;;;;;52.38;18.65;;;3.00;99.90;;;;;;5033750;28;20052;-64
2022/01/12 03:45:09;;;;;;;37.70;16.42;;;2.90;99.90;;;;;;5051261;28;20148;-65
2022/01/12 03:47:35;;;;;;;41.17;14.68;;;2.90;99.90;;;;;;5033124;28;20060;-65
2022/01/12 03:50:01;;;;;;;44.75;16.75;;;2.80;99.90;;;;;;5033517;28;20057;-65
2022/01/12 03:52:26;;;;;;;64.07;17.67;;;2.70;99.90;;;;;;5051035;28;20156;-64
2022/01/12 03:54:52;;;;;;;51.38;16.95;;;2.60;99.90;;;;;;5050439;28;20071;-65
2022/01/12 03:57:18;;;;;;;37.90;15.00;;;2.50;99.90;;;;;;5032921;28;20579;-64
2022/01/12 03:59:43;;;;;;;27.83;13.25;;;2.40;99.90;;;;;;5033699;28;20144;-65
2022/01/12 04:02:09;;;;;;;42.42;15.43;;;2.40;99.90;;;;;;5050414;28;20124;-64
2022/01/12 04:04:42;;;;;;;41.40;14.35;;;2.30;99.90;;;;;;5051222;28;20514;-65
2022/01/12 04:09:52;;;;;;;52.60;14.63;;;2.20;99.90;;;;;;5050468;28;20053;-65
2022/01/12 04:12:18;;;;;;;52.22;16.67;;;2.40;99.90;;;;;;5050150;28;20574;-65
2022/01/12 04:14:44;;;;;;;37.92;16.42;;;2.10;99.90;;;;;;5032875;28;20052;-65
2022/01/12 04:17:10;;;;;;;38.53;13.32;;;2.10;99.90;;;;;;5032039;28;20124;-65
2022/01/12 04:19:36;;;;;;;35.42;13.13;;;2.10;99.90;;;;;;5033195;28;20052;-65
2022/01/12 04:23:16;;;;;;;26.08;11.13;;;2.10;99.90;;;;;;5050858;28;20052;-65
2022/01/12 04:24:48;;;;;;;27.95;11.23;;;2.00;99.90;;;;;;5032695;28;20060;-64
2022/01/12 04:27:14;;;;;;;34.53;13.27;;;1.90;99.90;;;;;;5050687;28;20099;-65
2022/01/12 04:29:40;;;;;;;33.75;13.18;;;2.00;99.90;;;;;;5050222;28;20099;-65
2022/01/12 04:32:06;;;;;;;34.83;13.02;;;1.80;99.90;;;;;;5032642;28;20140;-65
2022/01/12 04:34:31;;;;;;;36.25;13.15;;;1.70;99.90;;;;;;5032626;28;20061;-64
2022/01/12 04:36:57;;;;;;;51.95;13.50;;;1.70;99.90;;;;;;5050166;28;20052;-65
2022/01/12 04:39:22;;;;;;;29.35;12.45;;;1.60;99.90;;;;;;5032516;28;20056;-64
2022/01/12 04:41:48;;;;;;;38.17;12.27;;;1.60;99.90;;;;;;5032857;28;20057;-64
2022/01/12 04:44:14;;;;;;;35.65;11.65;;;1.60;99.90;;;;;;5049716;28;20053;-65
2022/01/12 04:46:51;;;;;;;79.68;15.20;;;1.60;99.90;;;;;;5050690;28;20373;-65
2022/01/12 04:49:37;;;;;;;116.35;21.20;;;1.70;99.90;;;;;;5032628;28;20147;-65
2022/01/12 04:52:03;;;;;;;105.85;19.25;;;1.50;99.90;;;;;;5032221;28;20045;-65
2022/01/12 04:54:28;;;;;;;102.50;17.30;;;1.50;99.90;;;;;;5033026;28;20090;-65
2022/01/12 04:56:54;;;;;;;83.93;15.65;;;1.40;99.90;;;;;;5032684;28;20053;-64
2022/01/12 04:59:20;;;;;;;79.13;14.20;;;1.40;99.90;;;;;;5049600;28;20052;-65
2022/01/12 05:01:55;;;;;;;29.73;12.30;;;1.50;99.90;;;;;;5050444;28;20052;-65
2022/01/12 05:07:41;;;;;;;25.23;10.13;;;1.30;99.90;;;;;;4969000;28;20108;-65
2022/01/12 05:12:53;;;;;;;161.95;16.40;;;1.30;99.90;;;;;;5027586;28;20499;-65
2022/01/12 05:15:27;;;;;;;162.57;18.17;;;1.30;99.90;;;;;;5051013;28;20045;-65
2022/01/12 05:17:56;;;;;;;177.88;15.15;;;1.50;99.90;;;;;;5039188;28;20053;-65
2022/01/12 05:20:22;;;;;;;156.05;17.75;;;1.50;99.90;;;;;;5058360;28;20044;-65
2022/01/12 05:22:48;;;;;;;204.57;14.90;;;1.70;99.90;;;;;;5050782;28;20051;-64
2022/01/12 05:25:17;;;;;;;169.90;14.88;;;1.70;99.90;;;;;;5035644;28;20053;-65
2022/01/12 05:27:43;;;;;;;186.95;17.40;;;1.80;99.90;;;;;;5050658;28;20066;-64
2022/01/12 05:30:09;;;;;;;170.32;14.20;;;1.80;99.90;;;;;;5070362;28;20059;-65
2022/01/12 05:32:35;;;;;;;237.23;17.38;;;1.80;99.90;;;;;;5053221;28;20692;-65
2022/01/12 05:35:03;;;;;;;239.75;16.48;;;1.80;99.90;;;;;;5057562;28;20048;-64
2022/01/12 05:37:29;;;;;;;149.05;13.02;;;2.00;99.90;;;;;;5073871;28;20090;-65
2022/01/12 05:39:54;;;;;;;229.55;15.73;;;1.80;99.90;;;;;;5035891;28;20045;-64
2022/01/12 05:42:20;;;;;;;150.07;13.98;;;1.80;99.90;;;;;;5057496;28;20045;-65
2022/01/12 05:44:45;;;;;;;144.05;14.93;;;1.90;99.90;;;;;;5055724;28;20060;-65
2022/01/12 05:47:29;;;;;;;162.98;14.73;;;1.90;99.90;;;;;;5072751;28;20052;-65
2022/01/12 05:49:54;;;;;;;167.43;16.63;;;1.90;99.90;;;;;;5056045;28;20453;-65
2022/01/12 05:52:20;;;;;;;220.70;19.92;;;2.60;99.90;;;;;;5055849;28;20060;-64
2022/01/12 05:54:45;;;;;;;128.43;14.93;;;1.80;99.90;;;;;;5055035;28;20479;-64
2022/01/12 05:57:11;;;;;;;125.68;11.48;;;1.80;99.90;;;;;;5073394;28;20036;-65
2022/01/12 05:59:37;;;;;;;59.75;8.10;;;1.90;99.90;;;;;;5064613;28;20056;-64
2022/01/12 06:02:03;;;;;;;182.55;15.63;;;1.80;99.90;;;;;;5040959;28;20045;-65
2022/01/12 06:04:28;;;;;;;139.43;14.50;;;1.80;99.90;;;;;;5062597;28;20511;-64
2022/01/12 06:06:56;;;;;;;197.75;14.82;;;1.70;99.90;;;;;;5059745;28;20068;-65
2022/01/12 06:09:22;;;;;;;203.93;16.17;;;1.80;99.90;;;;;;5043233;28;20103;-65
2022/01/12 06:11:48;;;;;;;249.52;15.88;;;1.70;99.90;;;;;;5051249;28;20048;-65
2022/01/12 06:14:18;;;;;;;190.95;13.68;;;1.70;99.90;;;;;;5055581;28;20090;-65
2022/01/12 06:16:44;;;;;;;215.52;15.65;;;1.70;99.90;;;;;;5060305;28;20102;-65
2022/01/12 06:19:09;;;;;;;98.65;7.90;;;1.60;99.90;;;;;;5059499;28;20045;-65
2022/01/12 06:21:35;;;;;;;154.82;11.80;;;1.60;99.90;;;;;;5055912;28;20083;-65
2022/01/12 06:24:00;;;;;;;289.50;17.20;;;1.60;99.90;;;;;;5034456;28;20061;-64
2022/01/12 06:26:27;;;;;;;182.20;11.32;;;1.60;99.90;;;;;;5049714;28;20051;-64
2022/01/12 06:29:23;;;;;;;149.23;11.15;;;1.60;99.90;;;;;;5035701;28;20049;-65
2022/01/12 06:31:46;;;;;;;184.18;13.57;;;1.60;99.90;;;;;;5062611;28;20068;-65
2022/01/12 06:34:11;;;;;;;96.97;13.27;;;1.50;99.90;;;;;;5064212;28;20110;-65
2022/01/12 06:36:37;;;;;;;115.07;9.80;;;1.50;99.90;;;;;;5063267;28;20430;-66
2022/01/12 06:39:07;;;;;;;71.00;7.03;;;1.40;99.90;;;;;;5058560;28;20045;-65
2022/01/12 06:41:32;;;;;;;102.65;7.47;;;1.30;99.90;;;;;;5072612;28;20119;-65
2022/01/12 06:43:58;;;;;;;102.30;8.40;;;1.20;99.90;;;;;;5072122;28;20486;-65
2022/01/12 06:46:28;;;;;;;123.55;8.60;;;1.20;99.90;;;;;;5054245;28;20098;-65
2022/01/12 06:48:53;;;;;;;207.85;13.85;;;1.20;99.90;;;;;;5072778;28;20056;-65
2022/01/12 06:51:19;;;;;;;148.15;8.95;;;1.20;99.90;;;;;;5066284;28;20171;-66
2022/01/12 06:53:45;;;;;;;155.70;13.52;;;1.10;99.90;;;;;;5033195;28;20049;-65
2022/01/12 06:56:10;;;;;;;160.35;15.20;;;1.10;99.90;;;;;;5033722;28;20264;-65
2022/01/12 06:58:36;;;;;;;147.48;13.52;;;1.10;99.90;;;;;;5051781;28;20049;-65
2022/01/12 07:01:02;;;;;;;235.18;24.95;;;1.00;99.90;;;;;;5051648;28;20579;-65
2022/01/12 07:03:27;;;;;;;566.40;67.10;;;1.00;99.90;;;;;;5052151;28;20040;-65
2022/01/12 07:05:53;;;;;;;157.30;11.50;;;1.00;99.90;;;;;;5033799;28;20067;-65
2022/01/12 07:08:19;;;;;;;234.02;19.70;;;0.90;99.90;;;;;;5051929;28;20056;-65
2022/01/12 07:10:44;;;;;;;148.10;8.60;;;0.90;99.90;;;;;;5035175;28;20068;-65
2022/01/12 07:13:11;;;;;;;69.30;5.82;;;0.80;99.90;;;;;;5065760;28;20051;-65
2022/01/12 07:15:41;;;;;;;191.68;18.23;;;0.70;99.90;;;;;;5059516;28;20154;-65
2022/01/12 07:18:07;;;;;;;64.57;6.70;;;0.70;99.90;;;;;;5071071;28;20052;-64
2022/01/12 07:20:33;;;;;;;92.20;7.65;;;0.70;99.90;;;;;;5071865;28;20089;-64
2022/01/12 07:22:59;;;;;;;80.82;9.40;;;0.60;99.90;;;;;;5053236;28;20055;-64
2022/01/12 07:25:25;;;;;;;73.70;9.38;;;0.60;99.90;;;;;;5050451;28;20449;-65
2022/01/12 07:27:51;;;;;;;75.32;8.82;;;0.60;99.90;;;;;;5051851;28;20052;-65
2022/01/12 07:30:17;;;;;;;49.13;7.45;;;0.60;99.90;;;;;;5034526;28;20082;-65
2022/01/12 07:32:42;;;;;;;32.00;7.07;;;0.60;99.90;;;;;;5067439;28;20427;-64
2022/01/12 07:35:08;;;;;;;107.75;12.20;;;0.50;99.90;;;;;;5057282;28;20037;-65
2022/01/12 07:37:34;;;;;;;75.68;12.82;;;0.50;99.90;;;;;;5051752;28;20049;-64
2022/01/12 07:40:00;;;;;;;85.05;13.50;;;0.60;99.90;;;;;;5037166;28;20504;-64
2022/01/12 07:42:25;;;;;;;58.10;12.10;;;0.60;99.90;;;;;;5044751;28;20053;-65
2022/01/12 07:44:59;;;;;;;37.67;8.50;;;0.50;99.90;;;;;;5060007;28;20048;-65
2022/01/12 07:47:30;;;;;;;89.35;9.02;;;0.60;99.90;;;;;;5041963;28;20080;-65
2022/01/12 07:49:57;;;;;;;38.45;7.07;;;0.50;99.90;;;;;;5066078;28;20548;-65
2022/01/12 07:52:23;;;;;;;57.25;7.35;;;0.60;99.90;;;;;;5056607;28;20090;-65
2022/01/12 07:54:49;;;;;;;43.00;7.20;;;0.50;99.90;;;;;;5059385;28;20044;-65
2022/01/12 07:57:15;;;;;;;91.65;14.20;;;0.40;99.90;;;;;;5043822;28;20045;-65
2022/01/12 07:59:40;;;;;;;25.83;5.75;;;0.40;99.90;;;;;;5063139;28;20049;-64
2022/01/12 08:02:07;;;;;;;48.25;6.18;;;0.40;99.90;;;;;;5047483;28;20055;-64
2022/01/12 08:04:33;;;;;;;35.63;7.22;;;0.40;99.90;;;;;;5066581;28;20487;-64
2022/01/12 08:06:59;;;;;;;50.92;6.28;;;0.40;99.90;;;;;;5070535;28;20166;-64
2022/01/12 08:09:25;;;;;;;31.80;5.70;;;0.40;99.90;;;;;;5050519;28;20539;-64
2022/01/12 08:11:50;;;;;;;41.15;6.28;;;0.40;99.90;;;;;;5051898;28;20637;-64
2022/01/12 08:14:16;;;;;;;34.08;6.10;;;0.30;99.90;;;;;;5048944;28;20086;-64
2022/01/12 08:16:42;;;;;;;27.05;5.15;;;0.30;99.90;;;;;;5055658;28;20052;-64
2022/01/12 08:19:08;;;;;;;24.27;5.45;;;0.30;99.90;;;;;;5043637;28;20131;-64
2022/01/12 08:21:34;;;;;;;24.08;5.30;;;0.20;99.90;;;;;;5039284;28;20186;-65
2022/01/12 08:23:59;;;;;;;9.98;5.28;;;0.30;99.90;;;;;;5070172;28;20051;-65
2022/01/12 08:26:25;;;;;;;25.08;4.20;;;0.30;99.90;;;;;;5047493;28;20041;-66
2022/01/12 08:28:51;;;;;;;55.10;7.90;;;0.30;99.90;;;;;;5069896;28;20067;-66
2022/01/12 08:31:17;;;;;;;23.67;5.57;;;0.30;99.90;;;;;;5041477;28;20064;-65
2022/01/12 08:33:44;;;;;;;35.60;7.00;;;0.30;99.90;;;;;;5044447;28;20064;-65
2022/01/12 08:36:10;;;;;;;18.70;5.38;;;0.60;99.90;;;;;;5065487;28;20051;-65
2022/01/12 08:38:36;;;;;;;15.82;5.32;;;0.40;99.90;;;;;;5045625;28;20060;-65
2022/01/12 08:41:02;;;;;;;17.35;5.53;;;0.50;99.90;;;;;;5061484;28;20048;-65
2022/01/12 08:43:27;;;;;;;21.27;4.95;;;0.50;99.90;;;;;;5050721;28;20045;-63
2022/01/12 08:45:54;;;;;;;18.20;5.78;;;0.70;99.90;;;;;;5043712;28;20041;-66
2022/01/12 08:48:20;;;;;;;24.95;6.90;;;0.50;99.90;;;;;;5049932;28;20110;-72
2022/01/12 08:50:46;;;;;;;63.97;7.82;;;0.60;99.90;;;;;;5051159;28;20458;-69
2022/01/12 08:53:12;;;;;;;22.25;5.63;;;0.60;99.90;;;;;;5040150;28;20045;-64
2022/01/12 08:55:38;;;;;;;25.35;6.53;;;0.70;99.90;;;;;;5063638;28;20468;-64
2022/01/12 08:58:04;;;;;;;37.03;5.90;;;0.70;99.90;;;;;;5051698;28;20048;-64
2022/01/12 09:00:29;;;;;;;56.78;7.18;;;0.70;99.90;;;;;;5056364;28;20425;-64
2022/01/12 09:02:55;;;;;;;58.55;7.60;;;0.70;99.90;;;;;;5055785;28;20067;-65
2022/01/12 09:05:21;;;;;;;96.18;10.80;;;0.70;99.90;;;;;;5054882;28;20053;-65
2022/01/12 09:07:46;;;;;;;49.92;6.68;;;0.70;99.90;;;;;;5038003;28;20047;-64
2022/01/12 09:10:12;;;;;;;61.13;6.53;;;0.70;99.90;;;;;;5072771;28;20055;-65
2022/01/12 09:12:39;;;;;;;31.70;5.85;;;0.70;99.90;;;;;;5065674;28;20029;-65
2022/01/12 09:15:06;;;;;;;60.08;7.15;;;0.70;99.90;;;;;;5049107;28;20048;-65
2022/01/12 09:17:32;;;;;;;58.03;6.40;;;0.80;99.90;;;;;;5047722;28;20084;-65
2022/01/12 09:19:58;;;;;;;32.05;5.68;;;0.80;99.90;;;;;;5071458;28;20079;-65
2022/01/12 09:22:23;;;;;;;24.90;4.93;;;0.80;99.90;;;;;;5068162;28;20105;-64
2022/01/12 09:24:49;;;;;;;50.22;6.35;;;1.10;99.90;;;;;;5047691;28;20610;-64
2022/01/12 09:27:17;;;;;;;31.50;6.38;;;0.90;99.90;;;;;;5053033;28;20083;-64
2022/01/12 09:29:43;;;;;;;48.05;6.90;;;0.90;99.90;;;;;;5073584;28;20040;-65
2022/01/12 09:32:09;;;;;;;69.78;7.30;;;0.90;99.90;;;;;;5072519;28;20048;-65
2022/01/12 09:34:37;;;;;;;42.67;6.65;;;1.00;99.90;;;;;;5070575;28;20439;-64
2022/01/12 09:37:03;;;;;;;44.75;6.60;;;0.90;99.90;;;;;;5051785;28;20052;-65
2022/01/12 09:39:29;;;;;;;26.65;5.32;;;1.00;99.90;;;;;;5043822;28;20056;-64
2022/01/12 09:41:56;;;;;;;77.70;7.47;;;1.00;99.90;;;;;;5072443;28;20048;-63
2022/01/12 09:44:32;;;;;;;109.63;11.45;;;1.00;99.90;;;;;;5054992;28;20082;-63
2022/01/12 09:47:00;;;;;;;83.07;6.72;;;1.10;99.90;;;;;;5072263;28;20131;-64
2022/01/12 09:49:26;;;;;;;73.18;7.10;;;1.10;99.90;;;;;;5072925;28;20044;-64
2022/01/12 09:51:52;;;;;;;73.75;7.43;;;1.20;99.90;;;;;;5073396;28;20052;-64
2022/01/12 09:54:19;;;;;;;52.95;7.00;;;1.20;99.90;;;;;;5054357;28;20040;-64
2022/01/12 09:56:44;;;;;;;93.63;7.50;;;1.20;99.90;;;;;;5072834;28;20060;-64
2022/01/12 09:59:10;;;;;;;120.93;7.25;;;1.20;99.90;;;;;;5073114;28;20045;-64
2022/01/12 10:01:39;;;;;;;46.05;7.25;;;1.30;99.90;;;;;;5054784;28;20102;-64
2022/01/12 10:04:20;;;;;;;38.88;6.47;;;1.40;99.90;;;;;;5055040;28;20072;-64
2022/01/12 10:06:57;;;;;;;64.25;7.65;;;1.40;99.90;;;;;;5073247;28;20052;-64
2022/01/12 10:09:31;;;;;;;123.47;11.30;;;1.50;99.90;;;;;;5072144;28;20045;-64
2022/01/12 10:12:04;;;;;;;55.22;6.68;;;1.70;99.90;;;;;;5072713;28;20127;-64
2022/01/12 10:14:49;;;;;;;72.93;5.88;;;1.60;99.90;;;;;;5054552;28;20037;-64
2022/01/12 10:17:17;;;;;;;75.95;6.15;;;1.70;99.90;;;;;;5054744;28;20053;-64
2022/01/12 10:19:43;;;;;;;32.45;5.78;;;1.70;99.90;;;;;;5055147;28;20487;-64
2022/01/12 10:22:11;;;;;;;33.72;5.63;;;1.70;99.90;;;;;;5052817;28;20087;-65
2022/01/12 10:24:42;;;;;;;35.53;5.65;;;1.90;99.90;;;;;;5047865;28;20064;-64
2022/01/12 10:27:17;;;;;;;32.83;5.57;;;1.90;99.90;;;;;;5053390;28;20083;-64
2022/01/12 10:29:44;;;;;;;51.95;8.00;;;1.90;99.90;;;;;;5051583;28;20123;-64
2022/01/12 10:32:10;;;;;;;51.63;5.82;;;1.90;99.90;;;;;;5054072;28;20170;-64
2022/01/12 10:34:47;;;;;;;33.63;5.90;;;2.10;99.90;;;;;;5072687;28;20052;-64
2022/01/12 10:37:22;;;;;;;32.15;6.85;;;2.10;99.90;;;;;;5052626;28;20040;-64
2022/01/12 10:39:49;;;;;;;51.33;6.57;;;2.20;99.90;;;;;;5054025;28;20051;-64
2022/01/12 10:42:18;;;;;;;214.05;27.50;;;2.20;99.90;;;;;;5039111;28;20146;-63
2022/01/12 10:44:47;;;;;;;49.80;7.82;;;2.40;99.90;;;;;;5034430;28;20091;-64
2022/01/12 10:47:18;;;;;;;32.70;7.78;;;2.50;99.90;;;;;;5052264;28;20040;-64
2022/01/12 10:50:00;;;;;;;34.50;6.30;;;2.60;99.90;;;;;;5050243;28;20056;-64
2022/01/12 10:52:32;;;;;;;41.70;6.38;;;2.70;99.90;;;;;;5050926;28;20099;-64
2022/01/12 10:55:06;;;;;;;16.75;4.22;;;2.70;99.90;;;;;;5052555;28;20497;-64
2022/01/12 10:57:38;;;;;;;37.10;7.43;;;2.90;99.90;;;;;;5051922;28;20472;-64
2022/01/12 11:00:19;;;;;;;34.55;6.25;;;3.00;99.90;;;;;;5034086;28;20052;-64
2022/01/12 11:02:57;;;;;;;24.50;4.18;;;3.10;99.90;;;;;;5034424;28;20534;-64
2022/01/12 11:05:26;;;;;;;213.52;24.75;;;3.10;99.90;;;;;;5051159;28;20547;-64
2022/01/12 11:07:53;;;;;;;45.60;7.38;;;3.20;99.90;;;;;;5052012;28;20403;-64
2022/01/12 11:10:20;;;;;;;33.63;6.80;;;3.30;99.90;;;;;;5051191;28;20079;-64
2022/01/12 11:12:47;;;;;;;20.83;5.90;;;3.40;99.90;;;;;;5050338;28;20079;-64
2022/01/12 11:15:17;;;;;;;33.30;7.82;;;3.40;99.90;;;;;;5050957;28;20052;-64
2022/01/12 11:17:45;;;;;;;27.92;6.85;;;3.50;99.90;;;;;;5052869;28;20053;-64
2022/01/12 11:20:26;;;;;;;30.88;7.22;;;3.60;99.90;;;;;;5064763;28;20045;-64
2022/01/12 11:23:08;;;;;;;77.05;9.15;;;3.80;99.90;;;;;;5068629;28;20075;-64
2022/01/12 11:25:37;;;;;;;24.10;7.50;;;3.80;99.90;;;;;;5051223;28;20045;-64
2022/01/12 11:28:16;;;;;;;25.83;7.80;;;4.00;99.90;;;;;;5051814;28;20279;-64
2022/01/12 11:30:45;;;;;;;34.85;11.73;;;4.00;99.90;;;;;;5033549;28;20099;-64
2022/01/12 11:33:13;;;;;;;31.63;7.63;;;4.20;99.90;;;;;;5050345;28;20068;-64
2022/01/12 11:35:42;;;;;;;28.52;10.13;;;4.20;99.90;;;;;;5033735;28;20084;-64
2022/01/12 11:38:24;;;;;;;26.83;8.55;;;4.30;99.90;;;;;;5051785;28;20132;-63
2022/01/12 11:40:50;;;;;;;25.10;9.40;;;4.40;99.90;;;;;;5033757;28;20060;-64
2022/01/12 11:43:25;;;;;;;26.60;9.98;;;4.40;99.90;;;;;;5051238;28;20051;-64
2022/01/12 11:46:04;;;;;;;32.17;10.85;;;4.50;99.90;;;;;;5035665;28;20045;-63
2022/01/12 11:48:32;;;;;;;23.98;8.85;;;4.50;99.90;;;;;;5051698;28;20132;-63
2022/01/12 11:50:57;;;;;;;26.33;10.38;;;4.50;99.90;;;;;;5062730;28;20048;-63
2022/01/12 11:53:23;;;;;;;23.35;9.20;;;4.50;99.90;;;;;;5070518;28;20153;-63
2022/01/12 11:55:48;;;;;;;30.90;8.82;;;4.50;99.90;;;;;;5063126;28;20103;-63
2022/01/12 11:58:18;;;;;;;31.90;8.10;;;4.50;99.90;;;;;;5050878;28;20049;-63
2022/01/12 12:00:44;;;;;;;34.28;9.43;;;4.60;99.90;;;;;;5032452;28;20160;-63
2022/01/12 12:03:19;;;;;;;32.30;9.85;;;4.60;99.90;;;;;;5033029;28;20123;-63
2022/01/12 12:05:45;;;;;;;29.27;9.48;;;4.60;99.90;;;;;;5033376;28;20049;-64
2022/01/12 12:08:22;;;;;;;30.42;10.27;;;4.70;99.90;;;;;;5032514;28;20154;-63
2022/01/12 12:10:52;;;;;;;32.38;10.98;;;4.70;99.90;;;;;;5050774;28;20053;-63
2022/01/12 12:13:21;;;;;;;27.20;9.82;;;4.70;99.90;;;;;;5032482;28;20435;-63
2022/01/12 12:15:47;;;;;;;65.97;14.50;;;4.80;99.90;;;;;;5031852;28;20422;-63
2022/01/12 12:18:16;;;;;;;38.17;10.93;;;4.90;99.90;;;;;;5050413;28;20040;-63
2022/01/12 12:20:41;;;;;;;38.35;12.90;;;4.90;99.90;;;;;;5032445;28;20175;-63
2022/01/12 12:23:07;;;;;;;30.80;10.98;;;4.90;99.90;;;;;;5054184;28;20479;-63
2022/01/12 12:25:35;;;;;;;35.95;11.30;;;4.90;99.90;;;;;;5060724;28;20041;-64
2022/01/12 12:28:04;;;;;;;31.40;11.93;;;5.00;99.90;;;;;;5045339;28;20093;-64
2022/01/12 12:30:32;;;;;;;38.38;11.38;;;5.00;99.90;;;;;;5058319;28;20048;-63
2022/01/12 12:33:03;;;;;;;28.90;11.10;;;5.10;99.90;;;;;;5070285;28;20040;-63
2022/01/12 12:35:32;;;;;;;38.08;11.55;;;5.10;99.90;;;;;;5034523;28;20167;-64
2022/01/12 12:38:01;;;;;;;37.65;13.43;;;5.20;99.90;;;;;;5048927;28;20040;-63
2022/01/12 12:40:36;;;;;;;43.58;12.80;;;5.20;99.90;;;;;;5058650;28;20052;-63
2022/01/12 12:43:04;;;;;;;41.33;12.45;;;5.20;99.90;;;;;;5048054;28;20073;-64
2022/01/12 12:45:45;;;;;;;30.58;11.68;;;5.30;99.90;;;;;;5050819;28;20133;-64
2022/01/12 12:48:13;;;;;;;31.88;11.40;;;5.30;99.90;;;;;;5051267;28;20082;-63
2022/01/12 12:50:40;;;;;;;22.15;9.55;;;5.40;99.90;;;;;;5045571;28;20088;-64
2022/01/12 12:53:06;;;;;;;47.22;12.73;;;5.30;99.90;;;;;;5046218;28;20491;-64
2022/01/12 12:55:41;;;;;;;26.52;11.20;;;5.40;99.90;;;;;;5041809;28;20099;-64
2022/01/12 12:58:08;;;;;;;24.50;10.48;;;5.40;99.90;;;;;;5032313;28;20538;-64
2022/01/12 13:00:35;;;;;;;33.00;10.38;;;5.40;99.90;;;;;;5063306;28;20442;-64
2022/01/12 13:03:03;;;;;;;27.75;11.27;;;5.50;99.90;;;;;;5049578;28;20123;-64
2022/01/12 13:05:35;;;;;;;26.48;11.90;;;5.40;99.90;;;;;;5032242;28;20080;-64
2022/01/12 13:08:02;;;;;;;30.80;11.60;;;5.50;99.90;;;;;;5050584;28;20084;-64
2022/01/12 13:10:32;;;;;;;26.65;11.05;;;5.60;99.90;;;;;;5049488;28;20488;-65
2022/01/12 13:13:06;;;;;;;31.55;10.32;;;5.50;99.90;;;;;;5032182;28;20049;-64
2022/01/12 13:15:34;;;;;;;29.40;11.93;;;5.40;99.90;;;;;;5050399;28;20136;-64
2022/01/12 13:18:14;;;;;;;25.33;10.48;;;5.40;99.90;;;;;;5048960;28;20400;-64
2022/01/12 13:23:44;;;;;;;35.65;13.43;;;5.50;99.90;;;;;;5049975;28;20140;-64
2022/01/12 13:26:12;;;;;;;38.03;13.85;;;5.40;99.90;;;;;;5032050;28;20095;-64
2022/01/12 13:28:41;;;;;;;22.63;11.60;;;5.50;99.90;;;;;;5050516;28;20095;-64
2022/01/12 13:31:11;;;;;;;30.08;13.55;;;5.50;99.90;;;;;;5049368;28;20105;-65
2022/01/12 13:33:46;;;;;;;32.33;12.93;;;5.50;99.90;;;;;;5054575;28;20094;-64
2022/01/12 13:36:20;;;;;;;40.60;18.80;;;5.50;99.90;;;;;;5058425;28;20103;-64
2022/01/12 13:38:53;;;;;;;38.97;12.23;;;5.50;99.90;;;;;;5063246;28;20048;-64
2022/01/12 13:41:22;;;;;;;36.88;15.23;;;5.40;99.90;;;;;;5054713;28;20052;-64
2022/01/12 13:43:54;;;;;;;31.33;11.80;;;5.40;99.90;;;;;;5054031;28;20386;-64
2022/01/12 13:46:34;;;;;;;28.23;11.93;;;5.40;99.90;;;;;;5072849;28;20040;-64
2022/01/12 13:51:39;;;;;;;39.95;12.88;;;5.40;99.90;;;;;;5051120;28;20052;-64
2022/01/12 13:54:07;;;;;;;35.33;13.40;;;5.30;99.90;;;;;;5054951;28;20052;-64
2022/01/12 13:56:34;;;;;;;26.20;10.65;;;5.40;99.90;;;;;;5059002;28;20507;-64